createdAt,value
2017-08-09T00:00:40.106Z,25.17
2017-08-09T00:01:50.459Z,25.14
2017-08-09T00:03:00.494Z,25.19
2017-08-09T00:04:10.904Z,25.19
2017-08-09T00:05:21.297Z,25.02
2017-08-09T00:06:31.634Z,25.02
2017-08-09T00:07:41.972Z,25
2017-08-09T00:08:52.314Z,25.07
2017-08-09T00:10:02.652Z,25.02
2017-08-09T00:11:13.043Z,25
2017-08-09T00:12:22.474Z,25.01
2017-08-09T00:13:32.515Z,25.01
2017-08-09T00:14:42.854Z,24.93
2017-08-09T00:15:52.878Z,24.94
2017-08-09T00:17:03.280Z,24.92
2017-08-09T00:18:13.333Z,24.89
2017-08-09T00:19:23.685Z,24.96
2017-08-09T00:20:34.055Z,24.93
2017-08-09T00:21:44.409Z,25.01
2017-08-09T00:22:54.796Z,25.07
2017-08-09T00:24:04.825Z,24.96
2017-08-09T00:25:14.535Z,25.02
2017-08-09T00:26:24.869Z,25.09
2017-08-09T00:27:35.222Z,25.17
2017-08-09T00:28:45.317Z,25.09
2017-08-09T00:29:55.353Z,25.11
2017-08-09T00:31:05.684Z,25.02
2017-08-09T00:32:16.030Z,25.04
2017-08-09T00:33:26.370Z,25
2017-08-09T00:34:36.468Z,25.07
2017-08-09T00:35:46.819Z,25.04
2017-08-09T00:36:58.413Z,25.08
2017-08-09T00:38:08.766Z,25.02
2017-08-09T00:39:19.124Z,25.05
2017-08-09T00:40:29.546Z,25
2017-08-09T00:41:39.918Z,24.96
2017-08-09T00:42:50.262Z,25.07
2017-08-09T00:44:00.612Z,25.05
2017-08-09T00:45:10.954Z,25.01
2017-08-09T00:46:21.345Z,25.05
2017-08-09T00:47:31.709Z,25.08
2017-08-09T00:48:41.739Z,25
2017-08-09T00:49:52.100Z,25.05
2017-08-09T00:51:02.442Z,25.08
2017-08-09T00:52:13.875Z,25
2017-08-09T00:53:24.148Z,25.08
2017-08-09T00:54:34.488Z,25.11
2017-08-09T00:55:44.534Z,25.05
2017-08-09T00:56:54.888Z,25.07
2017-08-09T00:58:05.266Z,25.09
2017-08-09T00:59:15.612Z,25.05
2017-08-09T01:00:25.327Z,25.05
2017-08-09T01:01:35.680Z,25.01
2017-08-09T01:02:46.034Z,25.04
2017-08-09T01:03:56.417Z,25.01
2017-08-09T01:05:06.753Z,24.94
2017-08-09T01:06:17.098Z,25.04
2017-08-09T01:07:27.458Z,25
2017-08-09T01:08:37.813Z,25.01
2017-08-09T01:09:47.911Z,25.04
2017-08-09T01:10:57.931Z,25
2017-08-09T01:12:08.276Z,25.05
2017-08-09T01:13:18.632Z,24.97
2017-08-09T01:14:28.976Z,25.01
2017-08-09T01:15:39.380Z,25.09
2017-08-09T01:16:49.106Z,25.07
2017-08-09T01:17:59.443Z,25.04
2017-08-09T01:19:09.780Z,25.01
2017-08-09T01:20:20.136Z,24.94
2017-08-09T01:21:30.526Z,25.08
2017-08-09T01:22:40.859Z,25.02
2017-08-09T01:23:50.890Z,24.94
2017-08-09T01:25:01.232Z,25.02
2017-08-09T01:26:11.266Z,24.94
2017-08-09T01:27:22.762Z,25.01
2017-08-09T01:28:32.789Z,25.01
2017-08-09T01:29:42.831Z,24.94
2017-08-09T01:30:53.187Z,24.97
2017-08-09T01:32:03.527Z,24.92
2017-08-09T01:33:13.917Z,24.9
2017-08-09T01:34:24.262Z,24.87
2017-08-09T01:35:34.611Z,24.86
2017-08-09T01:36:44.947Z,24.85
2017-08-09T01:37:54.972Z,24.87
2017-08-09T01:39:05.366Z,24.82
2017-08-09T01:40:15.401Z,24.87
2017-08-09T01:41:25.431Z,24.89
2017-08-09T01:42:35.465Z,24.85
2017-08-09T01:43:45.846Z,24.83
2017-08-09T01:44:56.644Z,24.87
2017-08-09T01:46:06.981Z,24.87
2017-08-09T01:47:16.701Z,24.89
2017-08-09T01:48:26.741Z,24.86
2017-08-09T01:49:37.095Z,24.82
2017-08-09T01:50:47.495Z,24.8
2017-08-09T01:51:57.852Z,24.78
2017-08-09T01:53:08.204Z,24.87
2017-08-09T01:54:20.326Z,24.85
2017-08-09T01:55:30.660Z,24.78
2017-08-09T01:56:41.053Z,24.74
2017-08-09T01:57:51.402Z,24.74
2017-08-09T01:59:01.744Z,24.74
2017-08-09T02:00:12.082Z,24.69
2017-08-09T02:01:21.814Z,24.69
2017-08-09T02:02:32.196Z,24.74
2017-08-09T02:03:42.258Z,24.7
2017-08-09T02:04:52.599Z,24.71
2017-08-09T02:06:02.630Z,24.78
2017-08-09T02:07:12.683Z,24.77
2017-08-09T02:08:22.774Z,24.67
2017-08-09T02:09:34.341Z,24.66
2017-08-09T02:10:45.838Z,24.59
2017-08-09T02:11:56.167Z,24.54
2017-08-09T02:13:06.517Z,24.48
2017-08-09T02:14:16.610Z,24.4
2017-08-09T02:15:26.944Z,24.32
2017-08-09T02:16:37.293Z,24.33
2017-08-09T02:17:47.627Z,24.32
2017-08-09T02:18:57.977Z,24.3
2017-08-09T02:20:08.057Z,24.33
2017-08-09T02:21:18.395Z,24.33
2017-08-09T02:22:28.741Z,24.29
2017-08-09T02:23:38.458Z,24.26
2017-08-09T02:24:48.795Z,24.26
2017-08-09T02:25:59.211Z,24.18
2017-08-09T02:27:09.238Z,24.14
2017-08-09T02:28:19.590Z,24.14
2017-08-09T02:29:29.943Z,24.15
2017-08-09T02:30:39.973Z,24.09
2017-08-09T02:31:50.365Z,24.09
2017-08-09T02:33:01.164Z,24.04
2017-08-09T02:34:11.522Z,24.04
2017-08-09T02:35:21.882Z,24.07
2017-08-09T02:36:32.222Z,24.09
2017-08-09T02:37:42.609Z,24.08
2017-08-09T02:38:52.970Z,24.08
2017-08-09T02:40:03.310Z,24.02
2017-08-09T02:41:13.352Z,24
2017-08-09T02:42:23.704Z,23.99
2017-08-09T02:43:34.111Z,24.02
2017-08-09T02:44:44.451Z,23.96
2017-08-09T02:45:54.156Z,23.87
2017-08-09T02:47:04.199Z,23.94
2017-08-09T02:48:14.231Z,23.85
2017-08-09T02:49:24.631Z,23.85
2017-08-09T02:50:34.977Z,23.84
2017-08-09T02:51:45.327Z,23.84
2017-08-09T02:52:55.669Z,23.82
2017-08-09T02:54:06.009Z,23.87
2017-08-09T02:55:17.751Z,23.92
2017-08-09T02:56:27.777Z,23.85
2017-08-09T02:57:38.125Z,23.87
2017-08-09T02:58:48.481Z,23.75
2017-08-09T02:59:59.529Z,23.77
2017-08-09T03:01:09.620Z,23.75
2017-08-09T03:33:49.034Z,20.46
2017-08-09T03:35:00.564Z,20.51
2017-08-09T03:36:10.906Z,20.57
2017-08-09T03:37:24.287Z,20.58
2017-08-09T03:38:34.626Z,20.6
2017-08-09T03:39:45.017Z,20.75
2017-08-09T03:40:55.349Z,20.86
2017-08-09T03:42:05.681Z,20.93
2017-08-09T03:43:16.022Z,21.12
2017-08-09T03:44:26.370Z,21.3
2017-08-09T03:45:36.793Z,21.45
2017-08-09T03:46:47.132Z,21.58
2017-08-09T03:47:57.475Z,21.73
2017-08-09T03:49:07.814Z,21.85
2017-08-09T03:50:19.347Z,21.96
2017-08-09T03:51:29.730Z,22.07
2017-08-09T03:52:39.762Z,22.24
2017-08-09T03:53:50.892Z,22.33
2017-08-09T03:55:00.940Z,22.49
2017-08-09T03:56:11.288Z,22.59
2017-08-09T03:57:21.387Z,22.63
2017-08-09T03:58:31.728Z,22.76
2017-08-09T03:59:42.058Z,22.89
2017-08-09T04:00:52.089Z,23
2017-08-09T04:02:02.120Z,23.01
2017-08-09T04:03:12.518Z,23.06
2017-08-09T04:04:22.555Z,23.1
2017-08-09T04:05:32.903Z,23.12
2017-08-09T04:06:42.921Z,23.32
2017-08-09T04:07:53.263Z,23.38
2017-08-09T04:09:03.336Z,23.45
2017-08-09T04:10:13.378Z,23.45
2017-08-09T04:11:23.709Z,23.55
2017-08-09T04:12:34.057Z,23.62
2017-08-09T04:13:44.417Z,23.67
2017-08-09T04:14:54.812Z,23.7
2017-08-09T04:16:05.161Z,23.71
2017-08-09T04:17:15.195Z,23.78
2017-08-09T04:18:25.570Z,23.85
2017-08-09T04:19:35.901Z,23.82
2017-08-09T04:20:46.315Z,23.92
2017-08-09T04:21:56.026Z,23.97
2017-08-09T04:23:06.073Z,23.99
2017-08-09T04:24:16.108Z,24.08
2017-08-09T04:25:26.457Z,24.19
2017-08-09T04:26:36.850Z,24.18
2017-08-09T04:27:47.194Z,24.33
2017-08-09T04:28:57.543Z,24.27
2017-08-09T04:30:07.898Z,24.33
2017-08-09T04:31:17.940Z,24.46
2017-08-09T04:32:28.342Z,24.48
2017-08-09T04:33:38.684Z,24.64
2017-08-09T04:34:48.715Z,24.7
2017-08-09T04:35:59.049Z,24.85
2017-08-09T04:37:09.391Z,24.96
2017-08-09T04:38:19.485Z,24.87
2017-08-09T04:39:29.512Z,24.87
2017-08-09T04:40:39.877Z,25
2017-08-09T04:41:50.215Z,25.08
2017-08-09T04:43:00.548Z,25.12
2017-08-09T04:44:10.944Z,25.15
2017-08-09T04:45:20.977Z,25.23
2017-08-09T04:46:31.339Z,25.33
2017-08-09T04:47:41.670Z,25.47
2017-08-09T04:48:52.011Z,25.66
2017-08-09T04:50:02.423Z,25.88
2017-08-09T04:51:12.750Z,26.01
2017-08-09T04:52:22.807Z,26.3
2017-08-09T04:53:32.534Z,26.79
2017-08-09T04:54:42.880Z,27.38
2017-08-09T04:55:53.286Z,27.87
2017-08-09T04:57:03.630Z,28.14
2017-08-09T04:58:15.626Z,28.39
2017-08-09T04:59:25.339Z,28.65
2017-08-09T05:00:35.680Z,28.91
2017-08-09T05:01:45.766Z,29.03
2017-08-09T05:02:56.093Z,29.24
2017-08-09T05:04:05.820Z,29.4
2017-08-09T05:05:16.181Z,29.48
2017-08-09T05:06:26.521Z,29.66
2017-08-09T05:07:36.935Z,29.88
2017-08-09T05:08:47.301Z,30.02
2017-08-09T05:09:57.335Z,30.21
2017-08-09T05:11:07.066Z,30.42
2017-08-09T05:12:17.107Z,30.6
2017-08-09T05:13:27.179Z,30.71
2017-08-09T05:14:37.218Z,30.85
2017-08-09T05:15:46.932Z,30.96
2017-08-09T05:16:56.972Z,31.08
2017-08-09T05:18:07.335Z,31.16
2017-08-09T05:19:17.827Z,31.18
2017-08-09T05:20:28.178Z,31.34
2017-08-09T05:21:38.206Z,31.45
2017-08-09T05:22:48.245Z,31.44
2017-08-09T05:23:58.290Z,31.58
2017-08-09T05:25:08.678Z,31.63
2017-08-09T05:26:19.034Z,31.71
2017-08-09T05:27:29.372Z,31.8
2017-08-09T05:28:39.717Z,31.87
2017-08-09T05:29:50.059Z,31.81
2017-08-09T05:31:00.464Z,31.94
2017-08-09T05:32:10.815Z,31.91
2017-08-09T05:33:21.160Z,31.94
2017-08-09T05:34:31.214Z,31.91
2017-08-09T05:35:41.563Z,31.91
2017-08-09T05:36:51.971Z,31.88
2017-08-09T05:38:02.321Z,30.99
2017-08-09T05:39:12.044Z,30.7
2017-08-09T05:40:22.391Z,31.19
2017-08-09T05:41:32.742Z,31.38
2017-08-09T05:42:43.138Z,31.47
2017-08-09T05:43:53.191Z,31.62
2017-08-09T05:45:03.240Z,31.7
2017-08-09T05:46:13.598Z,31.62
2017-08-09T05:47:23.954Z,31.87
2017-08-09T05:48:34.359Z,32.06
2017-08-09T05:49:44.718Z,32.27
2017-08-09T05:50:55.060Z,32.13
2017-08-09T05:52:05.421Z,32.16
2017-08-09T05:53:15.469Z,31.93
2017-08-09T05:54:25.548Z,32.17
2017-08-09T05:55:35.887Z,32.43
2017-08-09T05:56:46.224Z,32.38
2017-08-09T05:57:56.570Z,32.31
2017-08-09T05:59:08.269Z,32.13
2017-08-09T06:00:18.049Z,32.1
2017-08-09T06:01:28.403Z,32.13
2017-08-09T06:02:38.758Z,31.86
2017-08-09T06:03:49.115Z,31.21
2017-08-09T06:04:59.485Z,30.77
2017-08-09T06:06:09.882Z,30.48
2017-08-09T06:07:20.229Z,30.14
2017-08-09T06:08:30.273Z,29.91
2017-08-09T06:09:40.627Z,29.7
2017-08-09T06:10:50.985Z,29.57
2017-08-09T06:12:01.076Z,29.43
2017-08-09T06:13:11.420Z,29.33
2017-08-09T06:14:21.478Z,29.14
2017-08-09T06:15:31.825Z,29.06
2017-08-09T06:16:41.865Z,28.98
2017-08-09T06:17:51.962Z,28.95
2017-08-09T06:19:02.315Z,28.98
2017-08-09T06:20:12.654Z,28.95
2017-08-09T06:21:22.703Z,28.97
2017-08-09T06:22:33.049Z,29.06
2017-08-09T06:23:43.136Z,29.11
2017-08-09T06:24:53.208Z,29.02
2017-08-09T06:26:03.559Z,29.02
2017-08-09T06:27:13.923Z,29.03
2017-08-09T06:28:24.007Z,28.98
2017-08-09T06:29:34.099Z,28.97
2017-08-09T06:30:43.836Z,28.97
2017-08-09T06:31:53.858Z,28.88
2017-08-09T06:33:04.210Z,28.88
2017-08-09T06:34:14.552Z,28.79
2017-08-09T06:35:25.187Z,28.73
2017-08-09T06:36:35.537Z,28.83
2017-08-09T06:37:45.880Z,28.8
2017-08-09T06:38:55.603Z,28.78
2017-08-09T06:40:05.956Z,28.82
2017-08-09T06:41:15.743Z,28.8
2017-08-09T06:42:26.098Z,28.86
2017-08-09T06:43:36.464Z,28.75
2017-08-09T06:44:46.491Z,28.85
2017-08-09T06:45:56.525Z,28.86
2017-08-09T06:47:06.292Z,28.91
2017-08-09T06:48:16.632Z,28.85
2017-08-09T06:49:26.967Z,28.98
2017-08-09T06:50:37.325Z,28.95
2017-08-09T06:51:47.377Z,28.94
2017-08-09T06:52:57.768Z,28.97
2017-08-09T06:54:07.495Z,28.94
2017-08-09T06:55:17.843Z,28.98
2017-08-09T06:56:28.194Z,28.98
2017-08-09T06:57:38.241Z,28.97
2017-08-09T06:58:48.628Z,29.08
2017-08-09T06:59:58.965Z,29.05
2017-08-09T07:01:09.006Z,29.06
2017-08-09T07:02:19.043Z,29.23
2017-08-09T07:03:29.104Z,29.26
2017-08-09T07:04:39.497Z,29.38
2017-08-09T07:05:49.845Z,29.43
2017-08-09T07:06:59.587Z,29.47
2017-08-09T07:08:09.932Z,29.6
2017-08-09T07:09:20.276Z,29.69
2017-08-09T07:10:30.682Z,29.88
2017-08-09T07:11:40.718Z,29.98
2017-08-09T07:12:50.770Z,30.02
2017-08-09T07:14:01.117Z,30.09
2017-08-09T07:15:11.472Z,30.13
2017-08-09T07:16:21.878Z,30.25
2017-08-09T07:17:32.229Z,30.47
2017-08-09T07:18:42.595Z,30.48
2017-08-09T07:19:52.953Z,30.57
2017-08-09T07:21:03.320Z,30.6
2017-08-09T07:22:13.717Z,30.7
2017-08-09T07:23:24.064Z,30.6
2017-08-09T07:24:34.403Z,30.59
2017-08-09T07:25:46.575Z,30.54
2017-08-09T07:26:56.924Z,30.57
2017-08-09T07:28:07.334Z,30.44
2017-08-09T07:29:17.359Z,30.56
2017-08-09T07:30:27.399Z,30.49
2017-08-09T07:31:37.757Z,30.56
2017-08-09T07:32:47.786Z,30.56
2017-08-09T07:33:57.553Z,30.42
2017-08-09T07:35:08.659Z,30.4
2017-08-09T07:36:19.005Z,30.31
2017-08-09T07:37:29.352Z,30.25
2017-08-09T07:38:39.379Z,30.25
2017-08-09T07:39:49.771Z,30.16
2017-08-09T07:41:00.117Z,30.18
2017-08-09T07:42:10.469Z,30.25
2017-08-09T07:43:20.819Z,30.28
2017-08-09T07:44:30.548Z,30.26
2017-08-09T07:45:40.945Z,30.26
2017-08-09T07:46:51.305Z,30.18
2017-08-09T07:48:01.352Z,30.1
2017-08-09T07:49:11.703Z,30.1
2017-08-09T07:50:22.062Z,30.1
2017-08-09T07:51:32.453Z,30.06
2017-08-09T07:52:42.806Z,30.1
2017-08-09T07:53:53.157Z,30.06
2017-08-09T07:55:03.192Z,30.04
2017-08-09T07:56:13.547Z,30.03
2017-08-09T07:57:23.814Z,30.11
2017-08-09T07:58:34.160Z,30.16
2017-08-09T07:59:44.510Z,30.18
2017-08-09T08:00:54.252Z,30.22
2017-08-09T08:02:04.612Z,30.31
2017-08-09T08:03:16.750Z,30.31
2017-08-09T08:04:27.091Z,30.56
2017-08-09T08:05:37.140Z,30.56
2017-08-09T08:06:46.867Z,30.64
2017-08-09T08:07:57.213Z,30.7
2017-08-09T08:09:07.638Z,30.81
2017-08-09T08:10:17.987Z,30.81
2017-08-09T08:11:28.324Z,30.79
2017-08-09T08:12:38.668Z,30.84
2017-08-09T08:13:49.011Z,30.94
2017-08-09T08:14:59.108Z,30.96
2017-08-09T08:16:10.922Z,30.99
2017-08-09T08:17:20.980Z,31.04
2017-08-09T08:18:33.236Z,31.08
2017-08-09T08:19:43.570Z,31.01
2017-08-09T08:20:55.575Z,31.1
2017-08-09T08:22:05.920Z,31.08
2017-08-09T08:23:16.274Z,31.15
2017-08-09T08:24:25.997Z,31.25
2017-08-09T08:25:36.043Z,31.22
2017-08-09T08:26:46.461Z,31.28
2017-08-09T08:27:56.494Z,31.36
2017-08-09T08:29:06.854Z,31.41
2017-08-09T08:30:16.899Z,31.43
2017-08-09T08:31:27.249Z,31.44
2017-08-09T08:32:37.601Z,31.47
2017-08-09T08:33:47.663Z,31.49
2017-08-09T08:34:57.712Z,31.6
2017-08-09T08:36:08.068Z,31.77
2017-08-09T08:37:18.463Z,31.68
2017-08-09T08:38:28.828Z,31.77
2017-08-09T08:39:39.179Z,31.88
2017-08-09T08:40:49.549Z,31.77
2017-08-09T08:41:59.926Z,31.88
2017-08-09T08:43:10.355Z,31.97
2017-08-09T08:44:20.413Z,31.87
2017-08-09T08:45:30.442Z,31.97
2017-08-09T08:46:40.802Z,31.88
2017-08-09T08:47:51.183Z,31.86
2017-08-09T08:49:00.651Z,31.95
2017-08-09T08:50:10.996Z,32.03
2017-08-09T08:51:21.338Z,32.06
2017-08-09T08:52:31.391Z,32.16
2017-08-09T08:53:41.740Z,32.23
2017-08-09T08:54:51.833Z,32.24
2017-08-09T08:56:01.872Z,32.46
2017-08-09T08:57:11.908Z,32.75
2017-08-09T08:58:22.269Z,33.26
2017-08-09T08:59:32.303Z,33.59
2017-08-09T09:00:42.708Z,33.93
2017-08-09T09:01:53.058Z,33.97
2017-08-09T09:03:03.097Z,33.93
2017-08-09T09:04:13.141Z,33.9
2017-08-09T09:05:23.504Z,33.85
2017-08-09T09:06:33.924Z,33.85
2017-08-09T09:07:43.976Z,33.83
2017-08-09T09:08:54.347Z,33.95
2017-08-09T09:10:04.391Z,34.03
2017-08-09T09:11:14.754Z,34.05
2017-08-09T09:12:25.186Z,34.08
2017-08-09T09:13:35.236Z,34.02
2017-08-09T09:14:45.598Z,33.87
2017-08-09T09:15:55.639Z,33.81
2017-08-09T09:17:05.368Z,33.74
2017-08-09T09:18:15.463Z,33.73
2017-08-09T09:19:25.491Z,33.69
2017-08-09T09:20:35.873Z,33.62
2017-08-09T09:21:46.240Z,33.52
2017-08-09T09:22:56.601Z,33.44
2017-08-09T09:24:07.001Z,33.26
2017-08-09T09:25:17.033Z,33.2
2017-08-09T09:26:26.763Z,32.86
2017-08-09T09:27:37.127Z,32.72
2017-08-09T09:28:47.166Z,32.65
2017-08-09T09:29:57.254Z,32.61
2017-08-09T09:31:07.599Z,32.61
2017-08-09T09:32:17.953Z,32.71
2017-08-09T09:33:28.298Z,32.91
2017-08-09T09:34:38.647Z,33.09
2017-08-09T09:35:49.067Z,33.26
2017-08-09T09:36:59.447Z,33.48
2017-08-09T09:38:09.818Z,33.62
2017-08-09T09:39:20.175Z,33.77
2017-08-09T09:40:30.557Z,33.93
2017-08-09T09:41:40.649Z,34.18
2017-08-09T09:42:50.991Z,34.45
2017-08-09T09:44:01.347Z,34.74
2017-08-09T09:45:11.707Z,34.94
2017-08-09T09:46:22.079Z,35.2
2017-08-09T09:47:32.474Z,35.23
2017-08-09T09:48:42.505Z,35.34
2017-08-09T09:49:52.527Z,34.83
2017-08-09T09:51:02.990Z,34.67
2017-08-09T09:52:13.335Z,34.43
2017-08-09T09:53:23.737Z,34.36
2017-08-09T09:54:34.085Z,34.11
2017-08-09T09:55:44.446Z,33.99
2017-08-09T09:56:54.187Z,33.9
2017-08-09T09:58:04.253Z,33.87
2017-08-09T09:59:14.350Z,33.87
2017-08-09T10:00:24.390Z,34.02
2017-08-09T10:01:34.744Z,34.08
2017-08-09T10:02:44.787Z,34.15
2017-08-09T10:03:55.124Z,34.1
2017-08-09T10:05:05.214Z,34.41
2017-08-09T10:06:15.276Z,34.52
2017-08-09T10:07:25.649Z,34.63
2017-08-09T10:08:36.016Z,34.66
2017-08-09T10:09:46.366Z,34.84
2017-08-09T10:10:56.466Z,34.89
2017-08-09T10:12:06.826Z,34.94
2017-08-09T10:13:17.429Z,34.52
2017-08-09T10:14:27.775Z,34.3
2017-08-09T10:15:37.821Z,34.56
2017-08-09T10:16:48.226Z,34.72
2017-08-09T10:17:58.585Z,34.63
2017-08-09T10:19:08.931Z,34.69
2017-08-09T10:20:19.299Z,34.77
2017-08-09T10:21:29.635Z,34.9
2017-08-09T10:22:39.730Z,35.09
2017-08-09T10:23:50.109Z,35.28
2017-08-09T10:25:00.470Z,35.49
2017-08-09T10:26:10.526Z,35.86
2017-08-09T10:27:20.875Z,36.12
2017-08-09T10:28:31.270Z,36.19
2017-08-09T10:29:41.635Z,36.18
2017-08-09T10:30:51.997Z,36.33
2017-08-09T10:32:02.351Z,36.22
2017-08-09T10:33:12.399Z,35.96
2017-08-09T10:34:22.774Z,35.72
2017-08-09T10:35:33.131Z,35.55
2017-08-09T10:36:43.528Z,35.46
2017-08-09T10:37:53.898Z,35.34
2017-08-09T10:39:05.077Z,35.33
2017-08-09T10:40:15.538Z,35.23
2017-08-09T10:41:26.358Z,35.11
2017-08-09T10:42:36.450Z,34.89
2017-08-09T10:43:46.814Z,34.58
2017-08-09T10:44:57.169Z,34.39
2017-08-09T10:46:07.734Z,34.12
2017-08-09T10:47:18.085Z,34
2017-08-09T10:48:27.859Z,34.05
2017-08-09T10:49:38.246Z,33.9
2017-08-09T10:50:48.285Z,33.9
2017-08-09T10:51:58.650Z,33.9
2017-08-09T10:53:08.377Z,34.05
2017-08-09T10:54:18.785Z,34.14
2017-08-09T10:55:29.139Z,34.08
2017-08-09T10:56:39.493Z,34.24
2017-08-09T10:57:49.859Z,34.21
2017-08-09T10:59:00.245Z,34.15
2017-08-09T11:00:10.334Z,34.19
2017-08-09T11:01:20.692Z,34.19
2017-08-09T11:02:30.732Z,34.49
2017-08-09T11:03:40.760Z,35.26
2017-08-09T11:04:51.128Z,35.69
2017-08-09T11:06:01.202Z,36.19
2017-08-09T11:07:11.256Z,36.43
2017-08-09T11:08:21.288Z,36.63
2017-08-09T11:09:31.021Z,36.7
2017-08-09T11:10:41.380Z,36.59
2017-08-09T11:11:51.488Z,36.52
2017-08-09T11:13:01.838Z,36.53
2017-08-09T11:14:11.883Z,36.53
2017-08-09T11:15:22.258Z,36.47
2017-08-09T11:16:34.362Z,36.28
2017-08-09T11:17:44.765Z,36.37
2017-08-09T11:18:54.488Z,36.32
2017-08-09T11:20:04.857Z,36.26
2017-08-09T11:21:14.904Z,36.24
2017-08-09T11:22:25.276Z,36.19
2017-08-09T11:23:35.693Z,36.09
2017-08-09T11:24:46.071Z,36.12
2017-08-09T11:25:56.431Z,35.94
2017-08-09T11:27:06.790Z,35.92
2017-08-09T11:28:16.829Z,35.8
2017-08-09T11:29:26.921Z,35.82
2017-08-09T11:30:37.288Z,35.82
2017-08-09T11:31:47.656Z,35.77
2017-08-09T11:32:58.018Z,35.87
2017-08-09T11:34:08.375Z,35.98
2017-08-09T11:35:18.486Z,35.92
2017-08-09T11:36:28.846Z,35.95
2017-08-09T11:37:38.579Z,35.94
2017-08-09T11:38:48.933Z,36.01
2017-08-09T11:40:00.478Z,36.01
2017-08-09T11:41:10.970Z,35.86
2017-08-09T11:42:21.336Z,35.98
2017-08-09T11:43:31.700Z,35.94
2017-08-09T11:44:42.044Z,35.96
2017-08-09T11:45:52.393Z,36.04
2017-08-09T11:47:02.831Z,36.19
2017-08-09T11:48:13.199Z,36.32
2017-08-09T11:49:23.548Z,36.32
2017-08-09T11:50:33.889Z,36.34
2017-08-09T11:51:43.941Z,36.37
2017-08-09T11:52:54.339Z,36.41
2017-08-09T11:54:04.707Z,36.44
2017-08-09T11:55:15.068Z,36.44
2017-08-09T11:56:25.427Z,36.58
2017-08-09T11:57:35.791Z,36.56
2017-08-09T11:58:46.191Z,36.58
2017-08-09T11:59:56.544Z,36.65
2017-08-09T12:01:07.096Z,36.73
2017-08-09T12:02:18.951Z,36.83
2017-08-09T12:03:29.297Z,36.77
2017-08-09T12:04:39.665Z,36.83
2017-08-09T12:05:49.722Z,36.77
2017-08-09T12:06:59.765Z,36.89
2017-08-09T12:08:10.128Z,36.89
2017-08-09T12:09:20.181Z,36.92
2017-08-09T12:10:30.283Z,36.75
2017-08-09T12:11:40.637Z,36.7
2017-08-09T12:12:50.688Z,36.67
2017-08-09T12:14:01.055Z,36.59
2017-08-09T12:15:11.410Z,36.43
2017-08-09T12:16:21.830Z,36.39
2017-08-09T12:17:32.197Z,36.34
2017-08-09T12:18:43.600Z,36.34
2017-08-09T12:19:53.965Z,36.39
2017-08-09T12:21:04.007Z,36.53
2017-08-09T12:22:14.403Z,36.65
2017-08-09T12:23:24.774Z,36.74
2017-08-09T12:24:35.145Z,36.86
2017-08-09T12:25:45.494Z,36.99
2017-08-09T12:26:55.841Z,37.05
2017-08-09T12:28:08.280Z,37.11
2017-08-09T12:29:18.657Z,37.05
2017-08-09T12:30:29.014Z,37.02
2017-08-09T12:31:39.375Z,36.9
2017-08-09T12:32:49.735Z,36.89
2017-08-09T12:34:00.132Z,36.97
2017-08-09T12:35:10.482Z,36.99
2017-08-09T12:36:19.932Z,36.95
2017-08-09T12:37:30.296Z,37.02
2017-08-09T12:38:40.633Z,36.97
2017-08-09T12:39:52.599Z,36.95
2017-08-09T12:41:04.206Z,37.02
2017-08-09T12:42:13.922Z,37.17
2017-08-09T12:43:24.260Z,37.07
2017-08-09T12:44:34.306Z,37.08
2017-08-09T12:45:44.408Z,37.12
2017-08-09T12:46:54.760Z,37.08
2017-08-09T12:48:05.116Z,36.96
2017-08-09T12:49:15.176Z,36.93
2017-08-09T12:50:25.538Z,36.88
2017-08-09T12:51:35.636Z,36.78
2017-08-09T12:52:46.008Z,36.8
2017-08-09T12:53:56.351Z,36.75
2017-08-09T12:55:06.712Z,36.74
2017-08-09T12:56:16.432Z,36.74
2017-08-09T12:57:26.851Z,36.7
2017-08-09T12:58:37.214Z,36.77
2017-08-09T12:59:47.570Z,36.65
2017-08-09T13:00:57.621Z,36.61
2017-08-09T13:02:07.969Z,36.63
2017-08-09T13:03:20.221Z,36.67
2017-08-09T13:04:30.321Z,36.75
2017-08-09T13:05:40.355Z,36.83
2017-08-09T13:06:50.707Z,36.8
2017-08-09T13:08:01.076Z,36.88
2017-08-09T13:09:12.138Z,36.89
2017-08-09T13:10:22.502Z,36.88
2017-08-09T13:11:32.856Z,36.92
2017-08-09T13:12:42.906Z,37
2017-08-09T13:13:52.660Z,36.96
2017-08-09T13:15:02.780Z,37.02
2017-08-09T13:16:12.842Z,37.09
2017-08-09T13:17:23.216Z,37.08
2017-08-09T13:18:33.564Z,37.08
2017-08-09T13:19:43.924Z,37.05
2017-08-09T13:20:54.327Z,37.07
2017-08-09T13:22:04.693Z,37.04
2017-08-09T13:23:14.734Z,36.93
2017-08-09T13:24:24.770Z,36.88
2017-08-09T13:25:35.119Z,37.02
2017-08-09T13:26:45.546Z,37.02
2017-08-09T13:27:55.902Z,36.89
2017-08-09T13:29:06.249Z,36.96
2017-08-09T13:30:15.984Z,36.81
2017-08-09T13:31:26.034Z,36.8
2017-08-09T13:32:36.447Z,36.89
2017-08-09T13:33:46.187Z,36.86
2017-08-09T13:34:56.237Z,36.88
2017-08-09T13:36:07.299Z,36.84
2017-08-09T13:37:17.333Z,36.8
2017-08-09T13:38:27.732Z,36.86
2017-08-09T13:39:37.765Z,36.86
2017-08-09T13:40:47.821Z,36.86
2017-08-09T13:41:58.250Z,36.8
2017-08-09T13:43:08.594Z,36.86
2017-08-09T13:44:18.700Z,36.84
2017-08-09T13:45:29.062Z,36.92
2017-08-09T13:46:39.426Z,36.9
2017-08-09T13:47:49.788Z,36.9
2017-08-09T13:49:00.132Z,36.93
2017-08-09T13:50:09.924Z,36.95
2017-08-09T13:51:20.297Z,36.9
2017-08-09T13:52:30.679Z,36.92
2017-08-09T13:53:41.025Z,36.93
2017-08-09T13:54:51.373Z,36.86
2017-08-09T13:56:02.245Z,36.86
2017-08-09T13:57:12.589Z,36.93
2017-08-09T13:58:22.967Z,36.78
2017-08-09T13:59:33.325Z,36.86
2017-08-09T14:00:43.667Z,36.84
2017-08-09T14:01:54.073Z,36.78
2017-08-09T14:03:04.434Z,36.77
2017-08-09T14:04:14.786Z,36.81
2017-08-09T14:05:25.134Z,36.84
2017-08-09T14:06:35.189Z,36.75
2017-08-09T14:07:45.588Z,36.86
2017-08-09T14:08:55.640Z,36.77
2017-08-09T14:10:05.998Z,36.75
2017-08-09T14:11:17.559Z,36.7
2017-08-09T14:12:27.942Z,36.71
2017-08-09T14:13:37.458Z,36.84
2017-08-09T14:14:47.815Z,36.74
2017-08-09T14:15:57.866Z,36.67
2017-08-09T14:17:07.601Z,36.65
2017-08-09T14:18:17.967Z,36.63
2017-08-09T14:19:28.061Z,36.77
2017-08-09T14:20:38.432Z,36.8
2017-08-09T14:21:48.794Z,36.78
2017-08-09T14:22:59.159Z,36.88
2017-08-09T14:24:09.517Z,36.81
2017-08-09T14:25:19.928Z,36.8
2017-08-09T14:26:30.266Z,36.77
2017-08-09T14:27:40.650Z,36.65
2017-08-09T14:28:51.026Z,36.73
2017-08-09T14:30:01.387Z,36.7
2017-08-09T14:31:11.502Z,36.68
2017-08-09T14:32:21.840Z,36.74
2017-08-09T14:33:31.878Z,36.67
2017-08-09T14:34:41.295Z,36.78
2017-08-09T14:35:51.662Z,36.77
2017-08-09T14:37:02.069Z,36.62
2017-08-09T14:38:12.116Z,36.67
2017-08-09T14:39:22.501Z,36.71
2017-08-09T14:40:31.932Z,36.68
2017-08-09T14:41:41.969Z,36.78
2017-08-09T14:42:52.073Z,36.81
2017-08-09T14:44:02.128Z,36.8
2017-08-09T14:45:12.493Z,36.78
2017-08-09T14:46:22.845Z,36.8
2017-08-09T14:47:32.902Z,36.73
2017-08-09T14:48:43.301Z,36.75
2017-08-09T14:49:53.682Z,36.65
2017-08-09T14:51:03.719Z,36.63
2017-08-09T14:52:14.094Z,36.62
2017-08-09T14:53:24.442Z,36.61
2017-08-09T14:54:34.552Z,36.51
2017-08-09T14:55:44.589Z,36.46
2017-08-09T14:56:54.641Z,36.41
2017-08-09T14:58:04.698Z,36.43
2017-08-09T14:59:15.089Z,36.49
2017-08-09T15:00:25.197Z,36.43
2017-08-09T15:01:35.567Z,36.49
2017-08-09T15:02:45.945Z,36.47
2017-08-09T15:03:56.014Z,36.44
2017-08-09T15:05:06.370Z,36.51
2017-08-09T15:06:16.465Z,36.44
2017-08-09T15:07:26.823Z,36.49
2017-08-09T15:08:37.199Z,36.4
2017-08-09T15:09:48.196Z,36.33
2017-08-09T15:10:58.558Z,36.3
2017-08-09T15:12:08.348Z,36.25
2017-08-09T15:13:18.395Z,36.24
2017-08-09T15:14:28.439Z,36.22
2017-08-09T15:15:38.786Z,36.28
2017-08-09T15:16:49.802Z,36.26
2017-08-09T15:18:00.229Z,36.33
2017-08-09T15:19:10.595Z,36.28
2017-08-09T15:20:20.959Z,36.21
2017-08-09T15:21:31.364Z,36.24
2017-08-09T15:22:41.785Z,36.21
2017-08-09T15:23:53.058Z,36.25
2017-08-09T15:25:03.405Z,36.18
2017-08-09T15:26:13.777Z,36.12
2017-08-09T15:27:23.870Z,36.12
2017-08-09T15:28:33.919Z,36.15
2017-08-09T15:29:44.334Z,36.17
2017-08-09T15:30:54.418Z,35.98
2017-08-09T15:32:04.469Z,36.12
2017-08-09T15:33:14.523Z,35.99
2017-08-09T15:34:24.888Z,36.08
2017-08-09T15:35:35.306Z,35.96
2017-08-09T15:36:45.677Z,35.99
2017-08-09T15:37:56.045Z,35.9
2017-08-09T15:39:06.090Z,35.92
2017-08-09T15:40:16.468Z,35.83
2017-08-09T15:41:26.893Z,35.74